EmailTwitter


Observations de surface / Québec / LFRN

Régions: Québec | Canada | États-Unis | Europe | France | UK | Elsewhere
Station
Affichage
Infos & localisation pour LFRN | Aide pour décoder les METARs

Observations prises le 2017-05-26 à 01H30 UTC à RENNES/ST. JACQU, FR (LFRN)

Température: 17.0 Celsius

Point de rosée: 11.0 Celsius

Humidité relative: 68%

Vents: Est à 11 km/h ou 6 noeuds.

Pression au niveau moyen de la mer: 101.50 kilopascals.

Observation METAR:

LFRN 260130Z AUTO 09006KT CAVOK 17/11 Q1015 NOSIG=